sensor_id;sensor_type;location;lat;lon;timestamp;P1;durP1;ratioP1;P2;durP2;ratioP2
35691;SDS011;26978;44.830;-0.674;2023-05-07T00:01:08;26.80;;;4.75;;
35691;SDS011;26978;44.830;-0.674;2023-05-07T00:03:34;29.70;;;5.25;;
35691;SDS011;26978;44.830;-0.674;2023-05-07T00:06:00;17.02;;;4.40;;
35691;SDS011;26978;44.830;-0.674;2023-05-07T00:08:25;17.60;;;4.38;;
35691;SDS011;26978;44.830;-0.674;2023-05-07T00:10:51;22.63;;;4.78;;
35691;SDS011;26978;44.830;-0.674;2023-05-07T00:13:16;21.27;;;4.40;;
35691;SDS011;26978;44.830;-0.674;2023-05-07T00:15:42;19.67;;;4.50;;
35691;SDS011;26978;44.830;-0.674;2023-05-07T00:18:08;24.55;;;5.32;;
35691;SDS011;26978;44.830;-0.674;2023-05-07T00:20:33;26.73;;;5.07;;
35691;SDS011;26978;44.830;-0.674;2023-05-07T00:22:59;21.00;;;4.72;;
35691;SDS011;26978;44.830;-0.674;2023-05-07T00:25:24;23.48;;;5.07;;
35691;SDS011;26978;44.830;-0.674;2023-05-07T00:27:50;25.95;;;5.03;;
35691;SDS011;26978;44.830;-0.674;2023-05-07T00:30:16;21.48;;;4.78;;
35691;SDS011;26978;44.830;-0.674;2023-05-07T00:32:41;28.60;;;4.32;;
35691;SDS011;26978;44.830;-0.674;2023-05-07T00:35:07;33.10;;;5.30;;
35691;SDS011;26978;44.830;-0.674;2023-05-07T00:37:33;27.10;;;4.47;;
35691;SDS011;26978;44.830;-0.674;2023-05-07T00:39:59;28.95;;;5.40;;
35691;SDS011;26978;44.830;-0.674;2023-05-07T00:42:25;24.90;;;4.53;;
35691;SDS011;26978;44.830;-0.674;2023-05-07T00:44:50;27.73;;;5.20;;
35691;SDS011;26978;44.830;-0.674;2023-05-07T00:47:16;30.80;;;5.00;;
35691;SDS011;26978;44.830;-0.674;2023-05-07T00:49:42;18.73;;;5.00;;
35691;SDS011;26978;44.830;-0.674;2023-05-07T00:52:14;24.73;;;5.40;;
35691;SDS011;26978;44.830;-0.674;2023-05-07T00:54:41;25.50;;;4.85;;
35691;SDS011;26978;44.830;-0.674;2023-05-07T00:57:07;31.58;;;4.97;;
35691;SDS011;26978;44.830;-0.674;2023-05-07T00:59:36;25.27;;;4.80;;
35691;SDS011;26978;44.830;-0.674;2023-05-07T01:02:02;29.63;;;6.25;;
35691;SDS011;26978;44.830;-0.674;2023-05-07T01:04:27;20.95;;;4.97;;
35691;SDS011;26978;44.830;-0.674;2023-05-07T01:06:54;25.92;;;6.10;;
35691;SDS011;26978;44.830;-0.674;2023-05-07T01:09:21;23.02;;;4.80;;
35691;SDS011;26978;44.830;-0.674;2023-05-07T01:11:49;22.63;;;5.25;;
35691;SDS011;26978;44.830;-0.674;2023-05-07T01:14:15;30.90;;;6.45;;
35691;SDS011;26978;44.830;-0.674;2023-05-07T01:16:41;23.13;;;4.70;;
35691;SDS011;26978;44.830;-0.674;2023-05-07T01:19:11;24.45;;;5.72;;
35691;SDS011;26978;44.830;-0.674;2023-05-07T01:21:39;34.60;;;5.68;;
35691;SDS011;26978;44.830;-0.674;2023-05-07T01:24:10;31.92;;;5.55;;
35691;SDS011;26978;44.830;-0.674;2023-05-07T01:26:36;19.30;;;4.45;;
35691;SDS011;26978;44.830;-0.674;2023-05-07T01:29:02;25.88;;;5.63;;
35691;SDS011;26978;44.830;-0.674;2023-05-07T01:31:28;27.88;;;4.85;;
35691;SDS011;26978;44.830;-0.674;2023-05-07T01:33:54;22.05;;;5.75;;
35691;SDS011;26978;44.830;-0.674;2023-05-07T01:36:21;26.35;;;5.05;;
35691;SDS011;26978;44.830;-0.674;2023-05-07T01:38:48;23.25;;;5.20;;
35691;SDS011;26978;44.830;-0.674;2023-05-07T01:41:15;27.80;;;5.70;;
35691;SDS011;26978;44.830;-0.674;2023-05-07T01:43:41;26.70;;;4.95;;
35691;SDS011;26978;44.830;-0.674;2023-05-07T01:46:07;27.52;;;4.85;;
35691;SDS011;26978;44.830;-0.674;2023-05-07T01:48:35;27.75;;;5.32;;
35691;SDS011;26978;44.830;-0.674;2023-05-07T01:51:01;26.10;;;5.20;;
35691;SDS011;26978;44.830;-0.674;2023-05-07T01:53:27;24.02;;;5.20;;
35691;SDS011;26978;44.830;-0.674;2023-05-07T01:55:53;28.83;;;4.47;;
35691;SDS011;26978;44.830;-0.674;2023-05-07T01:58:19;34.08;;;5.88;;
35691;SDS011;26978;44.830;-0.674;2023-05-07T02:00:44;33.92;;;6.40;;
35691;SDS011;26978;44.830;-0.674;2023-05-07T02:03:10;29.95;;;5.43;;
35691;SDS011;26978;44.830;-0.674;2023-05-07T02:05:36;21.85;;;4.90;;
35691;SDS011;26978;44.830;-0.674;2023-05-07T02:08:01;33.72;;;5.93;;
35691;SDS011;26978;44.830;-0.674;2023-05-07T02:10:27;28.95;;;6.22;;
35691;SDS011;26978;44.830;-0.674;2023-05-07T02:12:53;28.73;;;5.63;;
35691;SDS011;26978;44.830;-0.674;2023-05-07T02:15:18;30.38;;;5.20;;
35691;SDS011;26978;44.830;-0.674;2023-05-07T02:20:28;26.25;;;4.78;;
35691;SDS011;26978;44.830;-0.674;2023-05-07T02:22:53;27.08;;;5.93;;
35691;SDS011;26978;44.830;-0.674;2023-05-07T02:25:19;36.58;;;6.13;;
35691;SDS011;26978;44.830;-0.674;2023-05-07T02:27:45;27.75;;;5.00;;
35691;SDS011;26978;44.830;-0.674;2023-05-07T02:30:11;35.97;;;6.25;;
35691;SDS011;26978;44.830;-0.674;2023-05-07T02:32:36;30.92;;;5.95;;
35691;SDS011;26978;44.830;-0.674;2023-05-07T02:35:02;31.45;;;5.80;;
35691;SDS011;26978;44.830;-0.674;2023-05-07T02:37:28;28.58;;;5.50;;
35691;SDS011;26978;44.830;-0.674;2023-05-07T02:39:53;35.20;;;6.18;;
35691;SDS011;26978;44.830;-0.674;2023-05-07T02:42:19;26.33;;;6.57;;
35691;SDS011;26978;44.830;-0.674;2023-05-07T02:44:45;30.38;;;6.75;;
35691;SDS011;26978;44.830;-0.674;2023-05-07T02:47:10;32.88;;;6.75;;
35691;SDS011;26978;44.830;-0.674;2023-05-07T02:49:38;34.00;;;6.13;;
35691;SDS011;26978;44.830;-0.674;2023-05-07T02:52:04;21.40;;;5.20;;
35691;SDS011;26978;44.830;-0.674;2023-05-07T02:54:29;21.52;;;5.28;;
35691;SDS011;26978;44.830;-0.674;2023-05-07T02:56:55;31.13;;;6.50;;
35691;SDS011;26978;44.830;-0.674;2023-05-07T02:59:21;21.38;;;4.90;;
35691;SDS011;26978;44.830;-0.674;2023-05-07T03:01:47;41.75;;;5.97;;
35691;SDS011;26978;44.830;-0.674;2023-05-07T03:04:13;32.67;;;6.15;;
35691;SDS011;26978;44.830;-0.674;2023-05-07T03:06:39;32.67;;;4.80;;
35691;SDS011;26978;44.830;-0.674;2023-05-07T03:09:04;32.25;;;5.35;;
35691;SDS011;26978;44.830;-0.674;2023-05-07T03:11:30;26.77;;;5.53;;
35691;SDS011;26978;44.830;-0.674;2023-05-07T03:13:56;28.52;;;5.18;;
35691;SDS011;26978;44.830;-0.674;2023-05-07T03:16:21;42.60;;;7.35;;
35691;SDS011;26978;44.830;-0.674;2023-05-07T03:18:47;30.50;;;5.32;;
35691;SDS011;26978;44.830;-0.674;2023-05-07T03:21:12;38.13;;;5.97;;
35691;SDS011;26978;44.830;-0.674;2023-05-07T03:23:38;29.55;;;5.63;;
35691;SDS011;26978;44.830;-0.674;2023-05-07T03:26:04;27.55;;;5.35;;
35691;SDS011;26978;44.830;-0.674;2023-05-07T03:28:29;26.80;;;5.70;;
35691;SDS011;26978;44.830;-0.674;2023-05-07T03:30:55;32.63;;;5.50;;
35691;SDS011;26978;44.830;-0.674;2023-05-07T03:33:21;35.35;;;5.20;;
35691;SDS011;26978;44.830;-0.674;2023-05-07T03:35:47;29.33;;;5.07;;
35691;SDS011;26978;44.830;-0.674;2023-05-07T03:38:12;33.83;;;4.93;;
35691;SDS011;26978;44.830;-0.674;2023-05-07T03:40:38;28.92;;;5.82;;
35691;SDS011;26978;44.830;-0.674;2023-05-07T03:43:03;26.33;;;4.85;;
35691;SDS011;26978;44.830;-0.674;2023-05-07T03:45:29;30.13;;;6.00;;
35691;SDS011;26978;44.830;-0.674;2023-05-07T03:47:55;31.83;;;5.45;;
35691;SDS011;26978;44.830;-0.674;2023-05-07T03:50:20;29.67;;;5.97;;
35691;SDS011;26978;44.830;-0.674;2023-05-07T03:52:46;34.42;;;7.15;;
35691;SDS011;26978;44.830;-0.674;2023-05-07T03:55:11;34.65;;;6.20;;
35691;SDS011;26978;44.830;-0.674;2023-05-07T03:57:37;27.58;;;5.70;;
35691;SDS011;26978;44.830;-0.674;2023-05-07T04:00:03;30.70;;;5.28;;
35691;SDS011;26978;44.830;-0.674;2023-05-07T04:02:29;29.10;;;5.55;;
35691;SDS011;26978;44.830;-0.674;2023-05-07T04:04:55;32.53;;;5.57;;
35691;SDS011;26978;44.830;-0.674;2023-05-07T04:07:21;29.52;;;5.30;;
35691;SDS011;26978;44.830;-0.674;2023-05-07T04:09:47;32.80;;;5.63;;
35691;SDS011;26978;44.830;-0.674;2023-05-07T04:12:12;26.80;;;5.82;;
35691;SDS011;26978;44.830;-0.674;2023-05-07T04:14:38;28.27;;;5.85;;
35691;SDS011;26978;44.830;-0.674;2023-05-07T04:17:03;27.83;;;5.18;;
35691;SDS011;26978;44.830;-0.674;2023-05-07T04:19:30;31.15;;;6.13;;
35691;SDS011;26978;44.830;-0.674;2023-05-07T04:21:58;26.92;;;5.15;;
35691;SDS011;26978;44.830;-0.674;2023-05-07T04:24:24;28.00;;;5.20;;
35691;SDS011;26978;44.830;-0.674;2023-05-07T04:26:50;32.38;;;5.00;;
35691;SDS011;26978;44.830;-0.674;2023-05-07T04:29:16;22.77;;;4.65;;
35691;SDS011;26978;44.830;-0.674;2023-05-07T04:31:42;27.13;;;5.68;;
35691;SDS011;26978;44.830;-0.674;2023-05-07T04:34:09;29.25;;;5.90;;
35691;SDS011;26978;44.830;-0.674;2023-05-07T04:36:36;33.25;;;5.60;;
35691;SDS011;26978;44.830;-0.674;2023-05-07T04:39:03;28.38;;;5.95;;
35691;SDS011;26978;44.830;-0.674;2023-05-07T04:41:29;27.67;;;5.80;;
35691;SDS011;26978;44.830;-0.674;2023-05-07T04:43:55;25.05;;;5.40;;
35691;SDS011;26978;44.830;-0.674;2023-05-07T04:46:21;27.20;;;5.70;;
35691;SDS011;26978;44.830;-0.674;2023-05-07T04:48:48;28.45;;;5.75;;
35691;SDS011;26978;44.830;-0.674;2023-05-07T04:51:14;33.83;;;6.18;;
35691;SDS011;26978;44.830;-0.674;2023-05-07T04:53:40;41.10;;;6.93;;
35691;SDS011;26978;44.830;-0.674;2023-05-07T04:56:06;28.05;;;6.35;;
35691;SDS011;26978;44.830;-0.674;2023-05-07T04:58:32;28.48;;;6.07;;
35691;SDS011;26978;44.830;-0.674;2023-05-07T05:00:58;32.67;;;6.10;;
35691;SDS011;26978;44.830;-0.674;2023-05-07T05:03:24;33.35;;;5.65;;
35691;SDS011;26978;44.830;-0.674;2023-05-07T05:05:51;33.10;;;6.65;;
35691;SDS011;26978;44.830;-0.674;2023-05-07T05:08:17;27.10;;;5.90;;
35691;SDS011;26978;44.830;-0.674;2023-05-07T05:10:43;29.23;;;5.45;;
35691;SDS011;26978;44.830;-0.674;2023-05-07T05:13:09;35.33;;;6.30;;
35691;SDS011;26978;44.830;-0.674;2023-05-07T05:15:37;26.08;;;5.63;;
35691;SDS011;26978;44.830;-0.674;2023-05-07T05:18:03;31.23;;;5.88;;
35691;SDS011;26978;44.830;-0.674;2023-05-07T05:20:29;30.10;;;5.88;;
35691;SDS011;26978;44.830;-0.674;2023-05-07T05:22:55;24.50;;;5.53;;
35691;SDS011;26978;44.830;-0.674;2023-05-07T05:25:20;34.67;;;5.85;;
35691;SDS011;26978;44.830;-0.674;2023-05-07T05:27:46;31.77;;;5.75;;
35691;SDS011;26978;44.830;-0.674;2023-05-07T05:30:12;30.75;;;6.38;;
35691;SDS011;26978;44.830;-0.674;2023-05-07T05:32:38;26.25;;;6.72;;
35691;SDS011;26978;44.830;-0.674;2023-05-07T05:35:03;28.10;;;5.50;;
35691;SDS011;26978;44.830;-0.674;2023-05-07T05:37:29;30.10;;;6.03;;
35691;SDS011;26978;44.830;-0.674;2023-05-07T05:39:56;32.67;;;6.53;;
35691;SDS011;26978;44.830;-0.674;2023-05-07T05:42:22;25.48;;;6.78;;
35691;SDS011;26978;44.830;-0.674;2023-05-07T05:44:48;27.27;;;5.95;;
35691;SDS011;26978;44.830;-0.674;2023-05-07T05:47:14;32.13;;;6.20;;
35691;SDS011;26978;44.830;-0.674;2023-05-07T05:49:39;29.67;;;5.85;;
35691;SDS011;26978;44.830;-0.674;2023-05-07T05:52:05;27.88;;;5.35;;
35691;SDS011;26978;44.830;-0.674;2023-05-07T05:54:30;36.08;;;6.63;;
35691;SDS011;26978;44.830;-0.674;2023-05-07T05:56:56;33.22;;;7.13;;
35691;SDS011;26978;44.830;-0.674;2023-05-07T05:59:22;30.23;;;6.18;;
35691;SDS011;26978;44.830;-0.674;2023-05-07T06:01:48;29.15;;;5.55;;
35691;SDS011;26978;44.830;-0.674;2023-05-07T06:04:13;30.05;;;7.68;;
35691;SDS011;26978;44.830;-0.674;2023-05-07T06:06:39;41.67;;;6.95;;
35691;SDS011;26978;44.830;-0.674;2023-05-07T06:09:05;42.42;;;7.72;;
35691;SDS011;26978;44.830;-0.674;2023-05-07T06:11:31;36.95;;;7.93;;
35691;SDS011;26978;44.830;-0.674;2023-05-07T06:13:57;27.60;;;6.68;;
35691;SDS011;26978;44.830;-0.674;2023-05-07T06:16:24;34.35;;;7.68;;
35691;SDS011;26978;44.830;-0.674;2023-05-07T06:18:50;26.00;;;6.50;;
35691;SDS011;26978;44.830;-0.674;2023-05-07T06:21:15;28.75;;;7.07;;
35691;SDS011;26978;44.830;-0.674;2023-05-07T06:23:41;34.75;;;7.15;;
35691;SDS011;26978;44.830;-0.674;2023-05-07T06:26:07;31.35;;;7.00;;
35691;SDS011;26978;44.830;-0.674;2023-05-07T06:28:32;30.40;;;7.10;;
35691;SDS011;26978;44.830;-0.674;2023-05-07T06:31:13;26.02;;;6.38;;
35691;SDS011;26978;44.830;-0.674;2023-05-07T06:33:40;34.55;;;7.55;;
35691;SDS011;26978;44.830;-0.674;2023-05-07T06:36:06;22.80;;;5.72;;
35691;SDS011;26978;44.830;-0.674;2023-05-07T06:38:32;29.95;;;5.78;;
35691;SDS011;26978;44.830;-0.674;2023-05-07T06:40:57;26.88;;;5.90;;
35691;SDS011;26978;44.830;-0.674;2023-05-07T06:43:23;24.92;;;5.28;;
35691;SDS011;26978;44.830;-0.674;2023-05-07T06:45:49;35.53;;;6.03;;
35691;SDS011;26978;44.830;-0.674;2023-05-07T06:48:14;26.58;;;5.05;;
35691;SDS011;26978;44.830;-0.674;2023-05-07T06:50:41;29.05;;;5.75;;
35691;SDS011;26978;44.830;-0.674;2023-05-07T06:53:07;34.97;;;6.35;;
35691;SDS011;26978;44.830;-0.674;2023-05-07T06:55:32;27.75;;;6.15;;
35691;SDS011;26978;44.830;-0.674;2023-05-07T06:57:58;27.77;;;6.15;;
35691;SDS011;26978;44.830;-0.674;2023-05-07T07:00:26;35.85;;;6.53;;
35691;SDS011;26978;44.830;-0.674;2023-05-07T07:02:52;31.80;;;5.93;;
35691;SDS011;26978;44.830;-0.674;2023-05-07T07:05:18;31.88;;;5.78;;
35691;SDS011;26978;44.830;-0.674;2023-05-07T07:07:44;25.05;;;6.53;;
35691;SDS011;26978;44.830;-0.674;2023-05-07T07:10:17;31.50;;;5.90;;
35691;SDS011;26978;44.830;-0.674;2023-05-07T07:12:46;20.38;;;4.53;;
35691;SDS011;26978;44.830;-0.674;2023-05-07T07:15:11;37.83;;;6.32;;
35691;SDS011;26978;44.830;-0.674;2023-05-07T07:17:38;32.70;;;6.00;;
35691;SDS011;26978;44.830;-0.674;2023-05-07T07:20:03;30.38;;;5.45;;
35691;SDS011;26978;44.830;-0.674;2023-05-07T07:22:30;27.13;;;5.60;;
35691;SDS011;26978;44.830;-0.674;2023-05-07T07:24:55;27.13;;;5.88;;
35691;SDS011;26978;44.830;-0.674;2023-05-07T07:27:21;21.95;;;4.70;;
35691;SDS011;26978;44.830;-0.674;2023-05-07T07:29:47;27.65;;;4.82;;
35691;SDS011;26978;44.830;-0.674;2023-05-07T07:32:12;21.85;;;4.25;;
35691;SDS011;26978;44.830;-0.674;2023-05-07T07:34:38;21.38;;;3.75;;
35691;SDS011;26978;44.830;-0.674;2023-05-07T07:37:04;27.38;;;4.97;;
35691;SDS011;26978;44.830;-0.674;2023-05-07T07:39:31;26.17;;;4.43;;
35691;SDS011;26978;44.830;-0.674;2023-05-07T07:41:57;25.60;;;4.88;;
35691;SDS011;26978;44.830;-0.674;2023-05-07T07:44:23;22.67;;;5.07;;
35691;SDS011;26978;44.830;-0.674;2023-05-07T07:46:50;26.13;;;4.65;;
35691;SDS011;26978;44.830;-0.674;2023-05-07T07:49:15;19.23;;;3.97;;
35691;SDS011;26978;44.830;-0.674;2023-05-07T07:51:41;17.30;;;3.53;;
35691;SDS011;26978;44.830;-0.674;2023-05-07T07:54:07;27.20;;;5.30;;
35691;SDS011;26978;44.830;-0.674;2023-05-07T07:56:33;18.60;;;3.63;;
35691;SDS011;26978;44.830;-0.674;2023-05-07T07:58:59;26.27;;;5.03;;
35691;SDS011;26978;44.830;-0.674;2023-05-07T08:01:25;21.40;;;3.55;;
35691;SDS011;26978;44.830;-0.674;2023-05-07T08:03:51;24.35;;;4.10;;
35691;SDS011;26978;44.830;-0.674;2023-05-07T08:06:17;18.83;;;3.47;;
35691;SDS011;26978;44.830;-0.674;2023-05-07T08:08:42;22.52;;;3.80;;
35691;SDS011;26978;44.830;-0.674;2023-05-07T08:11:08;24.98;;;5.72;;
35691;SDS011;26978;44.830;-0.674;2023-05-07T08:13:35;19.38;;;3.97;;
35691;SDS011;26978;44.830;-0.674;2023-05-07T08:16:01;20.10;;;4.00;;
35691;SDS011;26978;44.830;-0.674;2023-05-07T08:18:27;20.88;;;3.97;;
35691;SDS011;26978;44.830;-0.674;2023-05-07T08:20:54;15.10;;;3.30;;
35691;SDS011;26978;44.830;-0.674;2023-05-07T08:23:19;14.15;;;3.30;;
35691;SDS011;26978;44.830;-0.674;2023-05-07T08:25:45;21.52;;;3.45;;
35691;SDS011;26978;44.830;-0.674;2023-05-07T08:28:11;16.80;;;3.63;;
35691;SDS011;26978;44.830;-0.674;2023-05-07T08:30:37;17.25;;;3.35;;
35691;SDS011;26978;44.830;-0.674;2023-05-07T08:33:03;21.08;;;3.92;;
35691;SDS011;26978;44.830;-0.674;2023-05-07T08:35:28;13.98;;;3.13;;
35691;SDS011;26978;44.830;-0.674;2023-05-07T08:37:54;18.00;;;3.00;;
35691;SDS011;26978;44.830;-0.674;2023-05-07T08:40:20;11.45;;;2.90;;
35691;SDS011;26978;44.830;-0.674;2023-05-07T08:42:50;17.55;;;3.90;;
35691;SDS011;26978;44.830;-0.674;2023-05-07T08:45:21;22.63;;;4.25;;
35691;SDS011;26978;44.830;-0.674;2023-05-07T08:47:50;19.92;;;2.88;;
35691;SDS011;26978;44.830;-0.674;2023-05-07T08:50:18;17.73;;;3.88;;
35691;SDS011;26978;44.830;-0.674;2023-05-07T08:52:45;18.33;;;3.97;;
35691;SDS011;26978;44.830;-0.674;2023-05-07T08:55:11;20.50;;;4.07;;
35691;SDS011;26978;44.830;-0.674;2023-05-07T08:57:38;15.75;;;3.38;;
35691;SDS011;26978;44.830;-0.674;2023-05-07T09:00:03;22.70;;;4.18;;
35691;SDS011;26978;44.830;-0.674;2023-05-07T09:02:31;17.10;;;3.17;;
35691;SDS011;26978;44.830;-0.674;2023-05-07T09:04:57;18.95;;;3.17;;
35691;SDS011;26978;44.830;-0.674;2023-05-07T09:07:23;19.65;;;4.05;;
35691;SDS011;26978;44.830;-0.674;2023-05-07T09:09:50;16.20;;;4.03;;
35691;SDS011;26978;44.830;-0.674;2023-05-07T09:12:17;14.48;;;3.40;;
35691;SDS011;26978;44.830;-0.674;2023-05-07T09:14:43;14.30;;;3.33;;
35691;SDS011;26978;44.830;-0.674;2023-05-07T09:17:11;16.95;;;3.22;;
35691;SDS011;26978;44.830;-0.674;2023-05-07T09:19:36;13.65;;;3.40;;
35691;SDS011;26978;44.830;-0.674;2023-05-07T09:22:02;22.67;;;4.35;;
35691;SDS011;26978;44.830;-0.674;2023-05-07T09:24:29;13.20;;;3.03;;
35691;SDS011;26978;44.830;-0.674;2023-05-07T09:26:59;13.63;;;3.45;;
35691;SDS011;26978;44.830;-0.674;2023-05-07T09:29:26;12.13;;;3.05;;
35691;SDS011;26978;44.830;-0.674;2023-05-07T09:31:54;15.05;;;2.30;;
35691;SDS011;26978;44.830;-0.674;2023-05-07T09:34:19;15.10;;;3.40;;
35691;SDS011;26978;44.830;-0.674;2023-05-07T09:36:45;14.32;;;2.65;;
35691;SDS011;26978;44.830;-0.674;2023-05-07T09:39:11;17.98;;;3.05;;
35691;SDS011;26978;44.830;-0.674;2023-05-07T09:41:44;17.70;;;3.42;;
35691;SDS011;26978;44.830;-0.674;2023-05-07T09:44:14;17.67;;;3.65;;
35691;SDS011;26978;44.830;-0.674;2023-05-07T09:46:41;8.80;;;2.78;;
35691;SDS011;26978;44.830;-0.674;2023-05-07T09:49:12;18.00;;;3.53;;
35691;SDS011;26978;44.830;-0.674;2023-05-07T09:51:48;14.38;;;3.00;;
35691;SDS011;26978;44.830;-0.674;2023-05-07T09:54:15;12.77;;;2.60;;
35691;SDS011;26978;44.830;-0.674;2023-05-07T09:56:42;21.10;;;3.80;;
35691;SDS011;26978;44.830;-0.674;2023-05-07T09:59:13;16.17;;;3.10;;
35691;SDS011;26978;44.830;-0.674;2023-05-07T10:01:40;18.88;;;3.85;;
35691;SDS011;26978;44.830;-0.674;2023-05-07T10:04:08;18.63;;;3.42;;
35691;SDS011;26978;44.830;-0.674;2023-05-07T10:06:35;16.42;;;3.88;;
35691;SDS011;26978;44.830;-0.674;2023-05-07T10:09:02;20.85;;;4.35;;
35691;SDS011;26978;44.830;-0.674;2023-05-07T10:11:30;16.30;;;3.70;;
35691;SDS011;26978;44.830;-0.674;2023-05-07T10:13:58;18.70;;;2.97;;
35691;SDS011;26978;44.830;-0.674;2023-05-07T10:16:27;21.08;;;4.00;;
35691;SDS011;26978;44.830;-0.674;2023-05-07T10:18:56;15.48;;;3.88;;
35691;SDS011;26978;44.830;-0.674;2023-05-07T10:21:23;16.98;;;4.45;;
35691;SDS011;26978;44.830;-0.674;2023-05-07T10:23:51;19.80;;;3.17;;
35691;SDS011;26978;44.830;-0.674;2023-05-07T10:26:23;21.23;;;4.60;;
35691;SDS011;26978;44.830;-0.674;2023-05-07T10:28:51;21.25;;;5.22;;
35691;SDS011;26978;44.830;-0.674;2023-05-07T10:33:49;17.90;;;3.55;;
35691;SDS011;26978;44.830;-0.674;2023-05-07T10:36:17;21.35;;;4.13;;
35691;SDS011;26978;44.830;-0.674;2023-05-07T10:38:43;20.30;;;3.70;;
35691;SDS011;26978;44.830;-0.674;2023-05-07T10:41:09;17.90;;;3.60;;
35691;SDS011;26978;44.830;-0.674;2023-05-07T10:43:42;17.83;;;3.58;;
35691;SDS011;26978;44.830;-0.674;2023-05-07T10:46:16;13.38;;;3.03;;
35691;SDS011;26978;44.830;-0.674;2023-05-07T10:51:27;12.93;;;3.20;;
35691;SDS011;26978;44.830;-0.674;2023-05-07T10:56:36;15.63;;;3.10;;
35691;SDS011;26978;44.830;-0.674;2023-05-07T11:01:58;17.77;;;4.32;;
35691;SDS011;26978;44.830;-0.674;2023-05-07T11:04:27;11.10;;;2.83;;
35691;SDS011;26978;44.830;-0.674;2023-05-07T11:15:11;20.02;;;3.65;;
35691;SDS011;26978;44.830;-0.674;2023-05-07T11:17:58;20.55;;;3.90;;
35691;SDS011;26978;44.830;-0.674;2023-05-07T11:23:58;15.40;;;3.15;;
35691;SDS011;26978;44.830;-0.674;2023-05-07T11:26:05;21.33;;;4.55;;
35691;SDS011;26978;44.830;-0.674;2023-05-07T11:28:37;20.98;;;3.85;;
35691;SDS011;26978;44.830;-0.674;2023-05-07T11:31:07;16.77;;;3.55;;
35691;SDS011;26978;44.830;-0.674;2023-05-07T11:33:33;17.85;;;3.70;;
35691;SDS011;26978;44.830;-0.674;2023-05-07T11:36:01;16.98;;;3.67;;
35691;SDS011;26978;44.830;-0.674;2023-05-07T11:38:28;16.90;;;3.15;;
35691;SDS011;26978;44.830;-0.674;2023-05-07T11:41:00;15.98;;;3.42;;
35691;SDS011;26978;44.830;-0.674;2023-05-07T11:43:27;17.23;;;3.47;;
35691;SDS011;26978;44.830;-0.674;2023-05-07T11:45:53;22.30;;;3.55;;
35691;SDS011;26978;44.830;-0.674;2023-05-07T11:48:19;14.73;;;3.45;;
35691;SDS011;26978;44.830;-0.674;2023-05-07T11:50:59;22.02;;;3.13;;
35691;SDS011;26978;44.830;-0.674;2023-05-07T11:53:36;18.10;;;3.97;;
35691;SDS011;26978;44.830;-0.674;2023-05-07T11:56:07;21.38;;;3.42;;
35691;SDS011;26978;44.830;-0.674;2023-05-07T11:58:33;16.13;;;3.47;;
35691;SDS011;26978;44.830;-0.674;2023-05-07T12:00:59;18.30;;;3.97;;
35691;SDS011;26978;44.830;-0.674;2023-05-07T12:03:25;17.58;;;4.00;;
35691;SDS011;26978;44.830;-0.674;2023-05-07T12:05:50;18.38;;;4.03;;
35691;SDS011;26978;44.830;-0.674;2023-05-07T12:08:20;18.77;;;3.58;;
35691;SDS011;26978;44.830;-0.674;2023-05-07T12:10:46;20.33;;;3.65;;
35691;SDS011;26978;44.830;-0.674;2023-05-07T12:13:14;14.60;;;2.83;;
35691;SDS011;26978;44.830;-0.674;2023-05-07T12:15:41;21.40;;;3.60;;
35691;SDS011;26978;44.830;-0.674;2023-05-07T12:18:07;13.25;;;3.10;;
35691;SDS011;26978;44.830;-0.674;2023-05-07T12:20:34;15.45;;;3.30;;
35691;SDS011;26978;44.830;-0.674;2023-05-07T12:23:01;18.17;;;2.95;;
35691;SDS011;26978;44.830;-0.674;2023-05-07T12:25:29;15.95;;;3.50;;
35691;SDS011;26978;44.830;-0.674;2023-05-07T12:27:56;20.35;;;3.65;;
35691;SDS011;26978;44.830;-0.674;2023-05-07T12:30:23;13.00;;;3.47;;
35691;SDS011;26978;44.830;-0.674;2023-05-07T12:32:52;21.85;;;3.28;;
35691;SDS011;26978;44.830;-0.674;2023-05-07T12:35:25;14.55;;;3.10;;
35691;SDS011;26978;44.830;-0.674;2023-05-07T12:37:55;13.82;;;2.88;;
35691;SDS011;26978;44.830;-0.674;2023-05-07T12:40:21;14.00;;;2.95;;
35691;SDS011;26978;44.830;-0.674;2023-05-07T12:42:47;17.27;;;3.20;;
35691;SDS011;26978;44.830;-0.674;2023-05-07T12:45:19;18.95;;;3.65;;
35691;SDS011;26978;44.830;-0.674;2023-05-07T12:47:45;17.38;;;3.30;;
35691;SDS011;26978;44.830;-0.674;2023-05-07T12:50:12;13.95;;;3.58;;
35691;SDS011;26978;44.830;-0.674;2023-05-07T12:52:41;17.08;;;3.72;;
35691;SDS011;26978;44.830;-0.674;2023-05-07T12:55:11;17.05;;;3.53;;
35691;SDS011;26978;44.830;-0.674;2023-05-07T12:57:43;16.13;;;3.10;;
35691;SDS011;26978;44.830;-0.674;2023-05-07T13:00:18;12.00;;;3.25;;
35691;SDS011;26978;44.830;-0.674;2023-05-07T13:03:01;17.25;;;3.35;;
35691;SDS011;26978;44.830;-0.674;2023-05-07T13:05:26;20.35;;;3.75;;
35691;SDS011;26978;44.830;-0.674;2023-05-07T13:07:52;20.08;;;4.03;;
35691;SDS011;26978;44.830;-0.674;2023-05-07T13:10:21;18.75;;;3.65;;
35691;SDS011;26978;44.830;-0.674;2023-05-07T13:12:48;16.02;;;3.33;;
35691;SDS011;26978;44.830;-0.674;2023-05-07T13:15:14;19.30;;;3.70;;
35691;SDS011;26978;44.830;-0.674;2023-05-07T13:17:39;20.63;;;4.05;;
35691;SDS011;26978;44.830;-0.674;2023-05-07T13:20:05;18.08;;;3.80;;
35691;SDS011;26978;44.830;-0.674;2023-05-07T13:22:33;16.40;;;3.40;;
35691;SDS011;26978;44.830;-0.674;2023-05-07T13:24:58;15.85;;;3.35;;
35691;SDS011;26978;44.830;-0.674;2023-05-07T13:27:24;17.67;;;3.15;;
35691;SDS011;26978;44.830;-0.674;2023-05-07T13:29:50;17.45;;;3.92;;
35691;SDS011;26978;44.830;-0.674;2023-05-07T13:32:16;10.52;;;2.63;;
35691;SDS011;26978;44.830;-0.674;2023-05-07T13:34:42;13.98;;;3.17;;
35691;SDS011;26978;44.830;-0.674;2023-05-07T13:37:08;12.93;;;2.63;;
35691;SDS011;26978;44.830;-0.674;2023-05-07T13:39:33;16.75;;;3.90;;
35691;SDS011;26978;44.830;-0.674;2023-05-07T13:41:59;21.73;;;4.22;;
35691;SDS011;26978;44.830;-0.674;2023-05-07T13:44:26;26.70;;;3.70;;
35691;SDS011;26978;44.830;-0.674;2023-05-07T13:46:52;15.70;;;3.30;;
35691;SDS011;26978;44.830;-0.674;2023-05-07T13:49:17;14.50;;;3.17;;
35691;SDS011;26978;44.830;-0.674;2023-05-07T13:51:43;17.08;;;3.80;;
35691;SDS011;26978;44.830;-0.674;2023-05-07T13:54:08;16.40;;;3.88;;
35691;SDS011;26978;44.830;-0.674;2023-05-07T13:56:34;12.68;;;3.10;;
35691;SDS011;26978;44.830;-0.674;2023-05-07T13:59:00;18.75;;;3.97;;
35691;SDS011;26978;44.830;-0.674;2023-05-07T14:01:26;15.07;;;3.45;;
35691;SDS011;26978;44.830;-0.674;2023-05-07T14:03:52;15.77;;;3.30;;
35691;SDS011;26978;44.830;-0.674;2023-05-07T14:06:17;15.32;;;3.05;;
35691;SDS011;26978;44.830;-0.674;2023-05-07T14:08:43;18.23;;;3.42;;
35691;SDS011;26978;44.830;-0.674;2023-05-07T14:11:09;16.05;;;3.45;;
35691;SDS011;26978;44.830;-0.674;2023-05-07T14:13:34;16.77;;;3.45;;
35691;SDS011;26978;44.830;-0.674;2023-05-07T14:16:00;14.18;;;3.63;;
35691;SDS011;26978;44.830;-0.674;2023-05-07T14:18:26;14.80;;;3.35;;
35691;SDS011;26978;44.830;-0.674;2023-05-07T14:20:53;19.52;;;3.30;;
35691;SDS011;26978;44.830;-0.674;2023-05-07T14:23:19;14.40;;;2.55;;
35691;SDS011;26978;44.830;-0.674;2023-05-07T14:25:47;13.35;;;2.58;;
35691;SDS011;26978;44.830;-0.674;2023-05-07T14:28:12;15.35;;;3.33;;
35691;SDS011;26978;44.830;-0.674;2023-05-07T14:30:38;17.25;;;2.95;;
35691;SDS011;26978;44.830;-0.674;2023-05-07T14:33:04;15.95;;;3.63;;
35691;SDS011;26978;44.830;-0.674;2023-05-07T14:35:30;16.70;;;3.53;;
35691;SDS011;26978;44.830;-0.674;2023-05-07T14:37:55;17.20;;;3.35;;
35691;SDS011;26978;44.830;-0.674;2023-05-07T14:40:21;14.20;;;3.67;;
35691;SDS011;26978;44.830;-0.674;2023-05-07T14:42:46;16.88;;;3.70;;